Time;durP1;ratioP1;P1;durP2;ratioP2;P2;SDS_P1;SDS_P2;PMS_P1;PMS_P2;Temp;Humidity;BMP_temperature;BMP_pressure;BME280_temperature;BME280_humidity;BME280_pressure;Samples;Min_cycle;Max_cycle;Signal;HPM_P1;HPM_P2
2022/10/12 00:02:15;;;;;;;17.10;9.48;;;;;;;8.40;70.32;102384.97;4956904;28;20034;-57
2022/10/12 00:04:41;;;;;;;15.65;9.43;;;;;;;8.46;69.78;102385.72;4990455;28;20030;-57
2022/10/12 00:07:06;;;;;;;19.10;10.85;;;;;;;8.46;70.35;102383.94;4973564;28;20553;-57
2022/10/12 00:09:32;;;;;;;17.98;10.68;;;;;;;8.43;70.42;102393.78;4973204;28;20040;-58
2022/10/12 00:11:59;;;;;;;19.15;9.70;;;;;;;8.42;70.42;102390.25;4990579;28;20375;-58
2022/10/12 00:14:27;;;;;;;16.45;9.75;;;;;;;8.38;70.29;102388.56;4974565;28;20026;-58
2022/10/12 00:16:53;;;;;;;17.60;9.80;;;;;;;8.42;70.04;102382.28;4966831;28;20030;-58
2022/10/12 00:19:18;;;;;;;19.45;9.73;;;;;;;8.43;70.06;102386.69;4988955;28;20393;-57
2022/10/12 00:21:43;;;;;;;17.52;10.18;;;;;;;8.35;70.28;102383.34;4974615;28;20086;-57
2022/10/12 00:24:09;;;;;;;19.08;10.77;;;;;;;8.32;70.26;102389.59;4971305;28;20038;-57
2022/10/12 00:26:35;;;;;;;15.85;9.85;;;;;;;8.27;70.42;102383.59;4990613;28;20075;-57
2022/10/12 00:29:01;;;;;;;16.38;9.90;;;;;;;8.33;70.09;102387.84;4991312;28;20030;-58
2022/10/12 00:31:30;;;;;;;16.77;10.15;;;;;;;8.29;70.25;102386.16;4974064;28;20033;-57
2022/10/12 00:34:00;;;;;;;19.40;11.30;;;;;;;8.26;70.44;102387.13;4971633;28;20034;-58
2022/10/12 00:36:32;;;;;;;18.80;10.27;;;;;;;8.15;70.62;102389.25;4990837;28;20470;-57
2022/10/12 00:38:59;;;;;;;19.27;10.10;;;;;;;8.15;70.43;102386.59;4990890;28;20026;-57
2022/10/12 00:41:30;;;;;;;18.65;10.65;;;;;;;8.13;70.54;102393.69;4990124;28;20022;-58
2022/10/12 00:43:55;;;;;;;23.50;11.70;;;;;;;8.17;70.38;102384.75;4991134;28;20087;-57
2022/10/12 00:46:24;;;;;;;17.58;10.18;;;;;;;8.16;70.27;102386.53;4991395;28;20489;-57
2022/10/12 00:48:56;;;;;;;15.43;10.20;;;;;;;8.17;70.32;102382.09;4990355;28;20107;-58
2022/10/12 00:51:22;;;;;;;18.38;10.57;;;;;;;8.08;70.58;102387.66;4989722;28;20079;-57
2022/10/12 00:54:01;;;;;;;19.00;11.20;;;;;;;7.94;71.08;102375.66;4989204;28;20110;-57
2022/10/12 00:56:31;;;;;;;18.63;10.93;;;;;;;8.06;71.09;102390.34;4990347;28;20036;-57
2022/10/12 00:59:01;;;;;;;17.83;10.88;;;;;;;8.08;71.39;102392.94;4989553;28;20113;-58
2022/10/12 01:01:27;;;;;;;20.33;11.18;;;;;;;8.10;71.50;102401.72;4989251;28;20039;-57
2022/10/12 01:03:53;;;;;;;20.27;11.40;;;;;;;8.08;71.64;102387.66;4988283;28;20042;-57
2022/10/12 01:06:21;;;;;;;19.52;11.48;;;;;;;8.09;71.88;102389.38;4972949;28;20439;-58
2022/10/12 01:08:47;;;;;;;18.00;10.38;;;;;;;8.08;72.20;102391.16;4989779;28;20035;-58
2022/10/12 01:11:13;;;;;;;18.75;11.05;;;;;;;8.12;72.46;102389.31;4993994;28;20030;-60
2022/10/12 01:13:38;;;;;;;19.40;12.07;;;;;;;8.15;72.62;102384.78;4983212;28;20434;-57
2022/10/12 01:16:32;;;;;;;16.17;10.50;;;;;;;8.21;72.19;102375.81;4967806;28;20045;-56
2022/10/12 01:19:14;;;;;;;20.00;10.65;;;;;;;8.15;72.58;102366.25;4990370;28;20466;-57
2022/10/12 01:21:47;;;;;;;15.40;10.63;;;;;;;7.99;73.39;102370.22;4980733;28;20051;-58
2022/10/12 01:24:15;;;;;;;19.10;11.18;;;;;;;8.11;73.09;102359.28;4989460;28;20034;-57
2022/10/12 01:27:10;;;;;;;18.55;10.60;;;;;;;8.09;73.08;102363.78;4988800;28;20461;-57
2022/10/12 01:30:00;;;;;;;17.05;11.68;;;;;;;8.14;72.94;102351.25;4983293;28;20038;-57
2022/10/12 01:33:08;;;;;;;20.52;10.50;;;;;;;8.17;72.61;102347.63;4990478;28;20023;-57
2022/10/12 01:35:48;;;;;;;15.98;10.32;;;;;;;8.13;73.23;102348.66;4971565;28;20058;-57
2022/10/12 01:38:14;;;;;;;17.15;10.50;;;;;;;8.02;72.99;102356.03;4989653;28;20114;-61
2022/10/12 01:41:02;;;;;;;20.00;10.35;;;;;;;8.11;72.75;102355.75;4989327;28;20121;-57
2022/10/12 01:43:41;;;;;;;18.60;9.88;;;;;;;8.04;72.90;102352.44;4983431;28;20155;-58
2022/10/12 01:46:15;;;;;;;18.00;10.35;;;;;;;8.05;73.15;102346.19;4989373;28;20030;-58
2022/10/12 01:48:44;;;;;;;18.67;11.00;;;;;;;7.92;72.97;102345.69;4989581;28;20033;-57
2022/10/12 01:51:14;;;;;;;21.67;11.45;;;;;;;7.93;73.39;102338.59;4989047;28;20120;-58
2022/10/12 01:53:49;;;;;;;16.05;10.02;;;;;;;7.95;73.16;102345.59;4989295;28;20041;-57
2022/10/12 01:56:26;;;;;;;17.48;10.52;;;;;;;7.87;73.51;102341.44;4988286;28;20026;-57
2022/10/12 01:59:08;;;;;;;19.00;10.43;;;;;;;7.97;73.18;102348.19;4984166;28;20033;-57
2022/10/12 02:01:43;;;;;;;14.80;10.50;;;;;;;7.84;73.51;102333.56;4989178;28;20022;-58
2022/10/12 02:04:11;;;;;;;16.58;9.75;;;;;;;7.76;74.11;102340.84;4984449;28;20045;-57
2022/10/12 02:06:44;;;;;;;17.42;10.52;;;;;;;7.79;74.04;102336.34;4988167;28;20061;-57
2022/10/12 02:09:20;;;;;;;16.90;10.45;;;;;;;7.76;74.19;102333.75;4989105;28;20384;-58
2022/10/12 02:11:51;;;;;;;18.02;10.60;;;;;;;7.82;74.21;102330.09;5003723;28;20258;-58
2022/10/12 02:14:24;;;;;;;20.13;10.93;;;;;;;7.83;73.92;102323.91;4989599;28;20014;-58
2022/10/12 02:16:53;;;;;;;16.10;10.30;;;;;;;7.82;73.97;102320.34;4971568;28;20031;-57
2022/10/12 02:19:25;;;;;;;15.25;9.90;;;;;;;7.76;74.05;102322.31;4987733;28;20026;-57
2022/10/12 02:21:54;;;;;;;19.25;10.45;;;;;;;7.78;74.21;102324.00;4975709;28;20133;-58
2022/10/12 02:24:22;;;;;;;16.42;9.57;;;;;;;7.79;74.08;102319.56;4986396;28;20366;-57
2022/10/12 02:26:51;;;;;;;22.17;10.50;;;;;;;7.71;74.27;102314.50;4988833;28;20060;-57
2022/10/12 02:29:23;;;;;;;16.88;9.77;;;;;;;7.71;74.51;102323.31;4986284;28;20026;-58
2022/10/12 02:31:57;;;;;;;15.80;9.77;;;;;;;7.73;74.10;102318.84;4988744;28;20057;-58
2022/10/12 02:34:37;;;;;;;20.55;10.43;;;;;;;7.74;74.16;102320.59;4971950;28;20026;-57
2022/10/12 02:37:12;;;;;;;16.75;9.98;;;;;;;7.71;74.18;102319.81;4988705;28;20533;-57
2022/10/12 02:39:44;;;;;;;19.92;10.52;;;;;;;7.69;73.60;102318.97;4987982;28;20117;-57
2022/10/12 02:42:15;;;;;;;18.77;10.80;;;;;;;7.57;74.01;102319.31;4986628;28;20084;-58
2022/10/12 02:44:43;;;;;;;19.63;10.52;;;;;;;7.62;73.96;102320.94;4975203;28;20431;-58
2022/10/12 02:47:10;;;;;;;17.23;10.27;;;;;;;7.50;74.28;102316.81;4987526;28;20038;-57
2022/10/12 02:49:37;;;;;;;14.90;9.93;;;;;;;7.43;74.55;102314.38;4988919;28;20037;-58
2022/10/12 02:52:05;;;;;;;16.40;9.48;;;;;;;7.43;74.25;102315.22;4988014;28;20038;-58
2022/10/12 02:54:31;;;;;;;16.27;9.18;;;;;;;7.44;74.21;102310.81;4989329;28;20489;-57
2022/10/12 02:56:57;;;;;;;14.75;9.20;;;;;;;7.38;74.25;102303.91;4989472;28;20069;-57
2022/10/12 02:59:22;;;;;;;18.02;10.30;;;;;;;7.41;74.07;102310.88;4988462;28;20117;-58
2022/10/12 03:01:49;;;;;;;16.60;9.43;;;;;;;7.34;73.87;102302.25;4989085;28;20126;-57
2022/10/12 03:04:15;;;;;;;15.02;9.30;;;;;;;7.29;73.69;102301.50;4970913;28;20091;-57
2022/10/12 03:06:41;;;;;;;16.92;9.43;;;;;;;7.25;73.76;102305.13;4988400;28;20034;-57
2022/10/12 03:09:09;;;;;;;17.02;9.90;;;;;;;7.19;73.75;102295.56;4971049;28;20091;-57
2022/10/12 03:11:36;;;;;;;18.40;10.07;;;;;;;7.22;73.68;102295.50;4987709;28;20393;-57
2022/10/12 03:14:02;;;;;;;15.25;9.07;;;;;;;7.15;74.12;102295.72;4971498;28;20030;-58
2022/10/12 03:16:30;;;;;;;17.00;9.93;;;;;;;7.14;73.51;102299.25;4988032;28;20030;-57
2022/10/12 03:18:56;;;;;;;15.02;9.18;;;;;;;7.14;73.64;102296.59;4987499;28;20038;-57
2022/10/12 03:21:21;;;;;;;22.33;9.50;;;;;;;7.11;73.46;102294.88;4980796;28;20051;-58
2022/10/12 03:23:48;;;;;;;15.88;9.27;;;;;;;7.02;73.87;102298.63;4970244;28;20112;-57
2022/10/12 03:26:13;;;;;;;14.77;9.23;;;;;;;7.02;73.80;102289.84;4989807;28;20038;-58
2022/10/12 03:28:39;;;;;;;14.63;8.80;;;;;;;6.99;73.91;102289.91;4974895;28;20027;-57
2022/10/12 03:31:05;;;;;;;14.52;8.95;;;;;;;7.00;74.02;102294.28;4973113;28;20536;-58
2022/10/12 03:33:30;;;;;;;19.27;9.45;;;;;;;6.92;73.51;102294.50;4991086;28;20030;-57
2022/10/12 03:35:56;;;;;;;14.85;9.10;;;;;;;6.91;73.88;102291.88;4991171;28;20381;-57
2022/10/12 03:38:24;;;;;;;18.00;9.32;;;;;;;6.89;74.17;102284.00;4991441;28;20027;-57
2022/10/12 03:40:50;;;;;;;17.30;9.40;;;;;;;6.89;73.60;102291.06;4991451;28;20034;-57
2022/10/12 03:43:16;;;;;;;14.50;8.82;;;;;;;6.81;73.91;102289.44;4991160;28;20044;-58
2022/10/12 03:45:41;;;;;;;16.15;9.32;;;;;;;6.77;74.37;102282.50;4972841;28;20439;-57
2022/10/12 03:48:08;;;;;;;12.38;9.18;;;;;;;6.78;73.89;102292.19;4974953;28;20064;-57
2022/10/12 03:50:34;;;;;;;13.93;9.23;;;;;;;6.72;73.94;102283.53;4973698;28;20393;-57
2022/10/12 03:53:01;;;;;;;19.55;9.50;;;;;;;6.70;74.60;102286.19;4990982;28;20037;-57
2022/10/12 03:55:27;;;;;;;11.75;8.73;;;;;;;6.72;74.65;102292.31;4991151;28;20025;-57
2022/10/12 03:57:52;;;;;;;13.70;9.20;;;;;;;6.73;74.43;102285.25;4982750;28;20117;-57
2022/10/12 04:00:18;;;;;;;15.70;9.07;;;;;;;6.67;74.28;102282.75;4973896;28;20030;-57
2022/10/12 04:02:43;;;;;;;14.23;8.98;;;;;;;6.66;74.29;102281.03;4974145;28;20479;-57
2022/10/12 04:05:09;;;;;;;14.95;9.13;;;;;;;6.67;74.17;102270.41;4989480;28;20062;-58
2022/10/12 04:07:35;;;;;;;15.82;9.05;;;;;;;6.71;74.58;102271.22;4992189;28;20034;-58
2022/10/12 04:10:02;;;;;;;16.90;10.30;;;;;;;6.66;74.37;102270.47;4989493;28;20121;-58
2022/10/12 04:12:30;;;;;;;15.23;9.32;;;;;;;6.59;74.56;102283.81;4991020;28;20110;-58
2022/10/12 04:14:55;;;;;;;14.40;9.00;;;;;;;6.62;74.00;102272.31;4989909;28;20046;-58
2022/10/12 04:17:23;;;;;;;16.38;8.13;;;;;;;6.59;74.20;102275.88;4989853;28;20087;-57
2022/10/12 04:19:49;;;;;;;18.10;9.45;;;;;;;6.58;74.22;102281.19;4989051;28;20030;-57
2022/10/12 04:22:14;;;;;;;14.60;9.05;;;;;;;6.45;74.42;102277.97;4989870;28;20065;-58
2022/10/12 04:24:39;;;;;;;14.60;9.15;;;;;;;6.40;74.71;102284.28;4990474;28;20026;-58
2022/10/12 04:27:05;;;;;;;14.82;9.25;;;;;;;6.49;75.09;102284.06;4980223;28;20043;-57
2022/10/12 04:29:30;;;;;;;17.90;9.45;;;;;;;6.50;74.82;102284.03;4984687;28;20100;-58
2022/10/12 04:31:58;;;;;;;13.70;9.05;;;;;;;6.49;74.76;102290.22;4980413;28;20034;-57
2022/10/12 04:34:23;;;;;;;15.57;9.35;;;;;;;6.47;75.05;102288.50;4987565;28;20030;-57
2022/10/12 04:36:49;;;;;;;17.40;8.73;;;;;;;6.45;75.02;102283.25;4990257;28;20428;-57
2022/10/12 04:39:14;;;;;;;16.05;9.70;;;;;;;6.40;75.50;102265.78;4990299;28;20030;-57
2022/10/12 04:41:42;;;;;;;14.07;9.68;;;;;;;6.46;74.88;102274.41;4990305;28;20473;-57
2022/10/12 04:44:07;;;;;;;19.27;9.65;;;;;;;6.38;75.05;102281.66;4955563;28;20508;-56
2022/10/12 04:46:33;;;;;;;14.45;10.45;;;;;;;6.35;75.76;102289.66;5005304;28;20047;-57
2022/10/12 04:49:02;;;;;;;13.45;9.63;;;;;;;6.25;75.55;102286.34;4972332;28;20515;-57
2022/10/12 04:51:27;;;;;;;18.98;10.45;;;;;;;6.33;75.59;102284.41;4990453;28;20026;-57
2022/10/12 04:53:52;;;;;;;17.67;10.85;;;;;;;6.30;75.71;102284.47;4989977;28;20042;-58
2022/10/12 04:56:18;;;;;;;19.05;10.38;;;;;;;6.28;75.78;102288.91;4973819;28;20042;-57
2022/10/12 04:58:43;;;;;;;11.82;10.13;;;;;;;6.24;75.62;102287.25;4989837;28;20057;-57
2022/10/12 05:01:09;;;;;;;14.00;9.70;;;;;;;6.29;75.81;102289.78;4988842;28;20057;-57
2022/10/12 05:03:35;;;;;;;17.60;10.48;;;;;;;6.27;75.93;102286.31;4987666;28;20038;-57
2022/10/12 05:06:00;;;;;;;13.23;9.30;;;;;;;6.22;75.33;102298.75;4972823;28;20062;-57
2022/10/12 05:08:25;;;;;;;14.50;9.68;;;;;;;6.12;75.49;102287.53;4991087;28;20038;-57
2022/10/12 05:10:51;;;;;;;15.02;9.95;;;;;;;6.18;75.69;102286.50;4971474;28;20038;-57
2022/10/12 05:13:16;;;;;;;14.68;10.18;;;;;;;6.18;75.71;102283.84;4988664;28;20034;-57
2022/10/12 05:15:43;;;;;;;13.68;9.13;;;;;;;6.11;75.54;102270.78;4972825;28;20038;-57
2022/10/12 05:18:08;;;;;;;14.75;10.27;;;;;;;6.13;75.02;102282.19;4990947;28;20027;-57
2022/10/12 05:20:34;;;;;;;19.50;10.38;;;;;;;6.08;75.39;102273.50;4971962;28;20052;-57
2022/10/12 05:22:59;;;;;;;14.52;10.38;;;;;;;6.09;75.01;102262.03;5030500;28;20647;-57
2022/10/12 05:25:25;;;;;;;12.82;9.40;;;;;;;6.08;74.97;102262.06;4970909;28;20076;-57
2022/10/12 05:27:50;;;;;;;13.82;9.82;;;;;;;6.06;75.28;102269.13;4971283;28;20034;-57
2022/10/12 05:30:16;;;;;;;18.95;10.15;;;;;;;6.09;75.38;102261.19;4988275;28;20037;-57
2022/10/12 05:32:43;;;;;;;14.25;9.68;;;;;;;6.07;75.00;102262.97;4983163;28;20105;-58
2022/10/12 05:35:09;;;;;;;15.18;9.73;;;;;;;6.04;75.10;102263.91;4982638;28;20439;-57
2022/10/12 05:37:35;;;;;;;13.82;9.73;;;;;;;5.98;75.19;102258.75;4989618;28;20031;-57
2022/10/12 05:40:01;;;;;;;14.40;9.63;;;;;;;5.89;74.88;102270.34;4954385;28;20042;-57
2022/10/12 05:42:26;;;;;;;12.68;9.55;;;;;;;5.85;75.24;102265.16;4975584;28;20397;-57
2022/10/12 05:44:52;;;;;;;16.75;10.10;;;;;;;5.90;75.28;102260.66;4986904;28;20058;-57
2022/10/12 05:47:17;;;;;;;16.13;10.63;;;;;;;5.89;75.49;102264.19;4989074;28;20087;-57
2022/10/12 05:49:42;;;;;;;16.45;9.52;;;;;;;5.90;74.88;102258.88;4988830;28;20113;-58
2022/10/12 05:52:08;;;;;;;13.90;10.38;;;;;;;5.93;75.91;102250.06;4983142;28;20034;-56
2022/10/12 05:54:34;;;;;;;16.77;10.20;;;;;;;5.90;75.58;102258.88;4989228;28;20026;-56
2022/10/12 05:57:00;;;;;;;13.48;9.98;;;;;;;5.91;75.17;102263.28;4955347;28;20381;-56
2022/10/12 05:59:25;;;;;;;18.60;11.10;;;;;;;5.92;75.95;102265.00;4989390;28;20469;-56
2022/10/12 06:01:50;;;;;;;14.20;10.57;;;;;;;5.92;76.57;102269.41;4990090;28;20030;-57
2022/10/12 06:04:16;;;;;;;15.50;10.25;;;;;;;5.97;76.42;102262.31;4970304;28;20027;-56
2022/10/12 06:06:42;;;;;;;17.98;9.82;;;;;;;6.00;76.09;102262.25;4972660;28;20065;-56
2022/10/12 06:09:08;;;;;;;15.65;10.25;;;;;;;6.02;76.49;102263.06;4989961;28;20040;-57
2022/10/12 06:11:36;;;;;;;15.30;10.30;;;;;;;6.05;76.10;102263.00;4952338;28;20023;-58
2022/10/12 06:14:02;;;;;;;17.08;10.13;;;;;;;6.00;76.28;102261.34;4981933;28;20037;-58
2022/10/12 06:16:27;;;;;;;17.17;10.35;;;;;;;6.05;76.65;102259.50;4972217;28;20030;-57
2022/10/12 06:18:53;;;;;;;15.35;10.30;;;;;;;6.07;77.25;102260.34;4989296;28;20061;-57
2022/10/12 06:21:18;;;;;;;15.82;10.73;;;;;;;6.07;77.12;102260.34;4989409;28;20133;-57
2022/10/12 06:23:44;;;;;;;16.75;11.35;;;;;;;6.07;77.25;102249.78;4971947;28;20035;-57
2022/10/12 06:26:09;;;;;;;16.20;10.80;;;;;;;6.13;78.06;102265.47;5004574;28;20034;-57
2022/10/12 06:28:35;;;;;;;18.48;11.15;;;;;;;6.11;77.89;102257.56;4989514;28;20030;-58
2022/10/12 06:31:00;;;;;;;15.13;10.63;;;;;;;6.11;78.00;102251.44;4989628;28;20034;-57
2022/10/12 06:33:27;;;;;;;15.18;10.57;;;;;;;6.22;78.07;102265.28;4989708;28;20105;-57
2022/10/12 06:35:53;;;;;;;14.98;10.68;;;;;;;6.23;78.05;102255.56;4988943;28;20469;-57
2022/10/12 06:38:18;;;;;;;14.38;10.55;;;;;;;6.28;78.06;102259.00;4989562;28;20026;-57
2022/10/12 06:40:44;;;;;;;18.98;11.05;;;;;;;6.32;78.59;102256.25;4989114;28;20031;-57
2022/10/12 06:43:10;;;;;;;18.42;10.65;;;;;;;6.39;78.26;102254.34;4989628;28;20022;-57
2022/10/12 06:45:35;;;;;;;17.58;10.90;;;;;;;6.42;79.28;102251.63;4989319;28;20504;-58
2022/10/12 06:48:02;;;;;;;20.17;11.50;;;;;;;6.45;80.14;102255.97;4989424;28;20022;-57
2022/10/12 06:50:28;;;;;;;19.08;11.02;;;;;;;6.53;80.19;102254.00;4988714;28;20101;-57
2022/10/12 06:52:54;;;;;;;19.80;11.70;;;;;;;6.62;80.54;102247.63;4971976;28;20156;-58
2022/10/12 06:55:19;;;;;;;16.05;11.25;;;;;;;6.64;80.36;102249.31;4987101;28;20023;-57
2022/10/12 06:57:45;;;;;;;20.33;12.00;;;;;;;6.69;80.81;102247.44;4989579;28;20064;-57
2022/10/12 07:00:12;;;;;;;19.05;12.60;;;;;;;6.68;81.20;102250.16;4992489;28;20554;-57
2022/10/12 07:02:38;;;;;;;17.15;11.57;;;;;;;6.74;81.83;102258.78;4975827;28;20170;-57
2022/10/12 07:05:04;;;;;;;19.65;12.30;;;;;;;6.72;81.66;102254.44;4958876;28;20140;-57
2022/10/12 07:07:31;;;;;;;22.40;13.00;;;;;;;6.74;82.06;102256.16;4992746;28;20041;-57
2022/10/12 07:09:57;;;;;;;22.80;12.07;;;;;;;6.71;82.48;102258.00;4974991;28;20484;-57
2022/10/12 07:12:22;;;;;;;19.90;12.75;;;;;;;6.72;82.28;102257.09;4992459;28;20026;-57
2022/10/12 07:14:48;;;;;;;21.17;13.25;;;;;;;6.75;82.58;102252.59;4992362;28;20022;-57
2022/10/12 07:17:13;;;;;;;25.23;12.93;;;;;;;6.78;82.32;102249.88;4992627;28;20036;-57
2022/10/12 07:19:39;;;;;;;22.30;12.70;;;;;;;6.76;82.64;102249.03;4992215;28;20026;-57
2022/10/12 07:22:04;;;;;;;21.27;12.80;;;;;;;6.83;82.86;102245.34;5007830;28;20443;-57
2022/10/12 07:24:35;;;;;;;22.77;13.02;;;;;;;6.82;82.99;102243.63;4992117;28;20065;-57
2022/10/12 07:27:02;;;;;;;21.40;13.25;;;;;;;6.82;82.94;102248.00;5006863;28;20030;-57
2022/10/12 07:29:30;;;;;;;21.65;12.65;;;;;;;6.74;83.58;102232.34;4974731;28;20022;-57
2022/10/12 07:31:58;;;;;;;23.42;13.68;;;;;;;6.76;83.51;102235.81;4974762;28;20076;-57
2022/10/12 07:34:25;;;;;;;23.17;14.38;;;;;;;6.82;83.85;102250.66;4991932;28;20018;-57
2022/10/12 07:36:54;;;;;;;20.77;13.30;;;;;;;6.93;83.27;102247.75;4992151;28;20034;-57
2022/10/12 07:39:21;;;;;;;23.83;13.75;;;;;;;6.95;83.67;102246.81;4991558;28;20480;-58
2022/10/12 07:41:46;;;;;;;23.50;14.10;;;;;;;7.01;83.71;102248.44;4992205;28;20030;-56
2022/10/12 07:44:12;;;;;;;29.10;15.52;;;;;;;7.00;83.68;102249.31;4974300;28;20015;-56
2022/10/12 07:46:38;;;;;;;32.13;15.45;;;;;;;7.09;83.77;102246.47;5007445;28;20065;-57
2022/10/12 07:49:06;;;;;;;30.27;14.88;;;;;;;7.18;83.78;102258.59;4990523;28;20489;-57
2022/10/12 07:51:32;;;;;;;30.55;14.57;;;;;;;7.22;84.19;102261.09;4992092;28;20477;-56
2022/10/12 07:53:59;;;;;;;23.02;15.48;;;;;;;7.29;83.86;102256.50;4991380;28;20033;-58
2022/10/12 07:56:25;;;;;;;24.88;15.27;;;;;;;7.37;83.99;102258.94;4974463;28;20440;-57
2022/10/12 07:58:53;;;;;;;30.13;15.63;;;;;;;7.48;83.89;102263.03;4974340;28;20072;-56
2022/10/12 08:01:26;;;;;;;32.63;16.45;;;;;;;7.51;84.14;102251.50;4991854;28;20019;-57
2022/10/12 08:03:52;;;;;;;24.88;16.90;;;;;;;7.57;84.69;102251.34;4991393;28;20045;-57
2022/10/12 08:06:21;;;;;;;24.88;15.52;;;;;;;7.68;84.28;102266.94;4991611;28;20037;-58
2022/10/12 08:08:48;;;;;;;26.80;16.52;;;;;;;7.79;84.37;102269.25;4990689;28;20026;-57
2022/10/12 08:11:14;;;;;;;26.85;17.65;;;;;;;7.89;84.24;102274.25;4974507;28;20385;-57
2022/10/12 08:13:40;;;;;;;30.52;18.33;;;;;;;7.99;83.92;102260.75;4991751;28;20045;-57
2022/10/12 08:16:10;;;;;;;33.47;18.98;;;;;;;8.06;84.04;102256.97;4992244;28;20039;-57
2022/10/12 08:18:36;;;;;;;31.08;19.65;;;;;;;8.16;83.52;102261.97;4991246;28;20083;-57
2022/10/12 08:21:06;;;;;;;26.70;19.02;;;;;;;8.24;83.74;102260.88;4973905;28;20042;-57
2022/10/12 08:23:33;;;;;;;41.15;19.98;;;;;;;8.33;83.67;102257.94;4991621;28;20030;-57
2022/10/12 08:26:01;;;;;;;31.48;19.00;;;;;;;8.29;83.57;102249.19;4991290;28;20030;-57
2022/10/12 08:28:27;;;;;;;36.08;21.10;;;;;;;8.40;83.33;102254.22;4991290;28;20037;-58
2022/10/12 08:30:52;;;;;;;29.92;19.63;;;;;;;8.45;83.32;102244.34;4991222;28;20022;-57
2022/10/12 08:33:18;;;;;;;34.22;18.23;;;;;;;8.51;83.17;102245.94;4990829;28;20030;-57
2022/10/12 08:35:46;;;;;;;30.52;19.33;;;;;;;8.57;83.61;102235.13;4990153;28;20050;-58
2022/10/12 08:38:13;;;;;;;26.63;18.65;;;;;;;8.72;83.28;102241.72;4990950;28;20025;-58
2022/10/12 08:40:51;;;;;;;30.23;18.85;;;;;;;8.85;82.68;102249.22;4990948;28;20084;-58
2022/10/12 08:43:59;;;;;;;29.88;18.45;;;;;;;8.99;82.17;102253.19;4990985;28;20109;-57
2022/10/12 08:46:26;;;;;;;32.05;18.20;;;;;;;9.12;82.92;102248.31;4991234;28;20035;-57
2022/10/12 08:48:58;;;;;;;29.55;19.73;;;;;;;9.26;83.35;102257.53;4990633;28;20030;-57
2022/10/12 08:51:27;;;;;;;33.65;17.00;;;;;;;9.35;81.40;102250.16;4991121;28;20027;-57
2022/10/12 08:54:02;;;;;;;28.65;18.10;;;;;;;9.40;80.14;102248.22;4990987;28;20037;-57
2022/10/12 08:56:33;;;;;;;25.80;17.98;;;;;;;9.51;80.10;102251.38;4990877;28;20116;-57
2022/10/12 08:59:01;;;;;;;30.58;17.15;;;;;;;9.61;79.99;102243.94;4991090;28;20027;-56
2022/10/12 09:01:49;;;;;;;32.33;17.50;;;;;;;9.71;79.11;102255.97;4990960;28;20045;-57
2022/10/12 09:04:17;;;;;;;30.95;17.25;;;;;;;9.86;78.67;102258.03;5004073;28;20079;-58
2022/10/12 09:06:52;;;;;;;27.35;16.45;;;;;;;10.04;77.91;102263.59;4990592;28;20038;-57
2022/10/12 09:09:20;;;;;;;27.75;16.13;;;;;;;10.14;75.58;102263.16;4989909;28;20022;-57
2022/10/12 09:12:03;;;;;;;30.10;17.35;;;;;;;10.26;75.70;102271.59;4991120;28;20026;-57
2022/10/12 09:14:35;;;;;;;29.00;16.50;;;;;;;10.40;76.22;102275.47;4990747;28;20572;-57
2022/10/12 09:17:07;;;;;;;29.90;16.90;;;;;;;10.44;75.29;102278.88;4990674;28;20072;-57
2022/10/12 09:19:39;;;;;;;28.90;16.65;;;;;;;10.55;75.40;102268.69;4989670;28;20064;-56
2022/10/12 09:22:16;;;;;;;26.55;18.13;;;;;;;10.73;75.15;102263.56;4990050;28;20118;-58
2022/10/12 09:24:44;;;;;;;28.27;17.27;;;;;;;10.85;73.83;102274.59;4990264;28;20025;-58
2022/10/12 09:27:14;;;;;;;26.58;16.25;;;;;;;11.00;73.82;102267.75;4973037;28;20492;-57
2022/10/12 09:29:43;;;;;;;27.58;15.80;;;;;;;10.99;71.62;102271.31;4990292;28;20022;-57
2022/10/12 09:32:52;;;;;;;30.50;16.27;;;;;;;11.11;72.46;102262.81;4990120;28;20030;-57
2022/10/12 09:35:17;;;;;;;26.85;16.40;;;;;;;11.12;71.25;102267.22;5017791;28;20121;-57
2022/10/12 09:37:48;;;;;;;33.22;17.13;;;;;;;11.21;71.71;102257.97;4990242;28;20034;-57
2022/10/12 09:40:27;;;;;;;26.77;15.98;;;;;;;11.38;71.67;102262.56;4990046;28;20030;-57
2022/10/12 09:42:54;;;;;;;30.83;16.30;;;;;;;11.41;70.28;102257.09;4990447;28;20030;-58
2022/10/12 09:45:21;;;;;;;27.70;17.33;;;;;;;11.61;71.44;102266.88;4990246;28;20282;-57
2022/10/12 09:48:13;;;;;;;30.42;16.63;;;;;;;11.85;71.57;102256.03;4990262;28;20377;-57
2022/10/12 09:50:45;;;;;;;28.83;16.85;;;;;;;12.17;69.39;102260.78;4989740;28;20041;-57
2022/10/12 09:53:26;;;;;;;27.95;16.65;;;;;;;12.19;68.34;102258.91;4990221;28;20026;-58
2022/10/12 09:56:11;;;;;;;27.45;14.52;;;;;;;12.30;67.37;102252.22;4990197;28;20101;-58
2022/10/12 09:58:49;;;;;;;23.77;13.63;;;;;;;12.35;67.40;102251.03;4990070;28;20405;-57
2022/10/12 10:01:20;;;;;;;23.83;14.57;;;;;;;12.61;66.46;102247.09;4990201;28;20026;-58
2022/10/12 10:04:07;;;;;;;25.60;14.63;;;;;;;12.78;65.74;102246.28;4972073;28;20113;-57
2022/10/12 10:06:33;;;;;;;23.65;14.10;;;;;;;12.92;64.94;102230.41;4990003;28;20378;-58
2022/10/12 10:08:59;;;;;;;24.02;13.45;;;;;;;13.20;64.40;102229.00;4989965;28;20082;-58
2022/10/12 10:11:29;;;;;;;27.40;12.63;;;;;;;13.50;63.53;102229.25;4989983;28;20505;-58
2022/10/12 10:13:55;;;;;;;23.10;13.52;;;;;;;13.70;62.63;102227.28;4989995;28;20034;-57
2022/10/12 10:16:23;;;;;;;31.02;14.43;;;;;;;13.78;62.00;102236.63;4989893;28;20022;-58
2022/10/12 10:18:56;;;;;;;21.13;12.20;;;;;;;14.09;62.16;102241.16;4971767;28;20103;-57
2022/10/12 10:21:33;;;;;;;26.90;12.80;;;;;;;14.29;61.90;102236.50;4989662;28;20496;-58
2022/10/12 10:24:20;;;;;;;23.05;11.63;;;;;;;14.49;60.43;102238.91;4989525;28;20073;-57
2022/10/12 10:26:59;;;;;;;21.27;11.77;;;;;;;14.74;59.32;102230.38;4989766;28;20099;-57
2022/10/12 10:29:30;;;;;;;17.95;11.48;;;;;;;14.95;58.82;102230.91;4989300;28;20073;-58
2022/10/12 10:32:27;;;;;;;23.30;9.80;;;;;;;15.30;57.63;102248.53;4989444;28;20437;-57
2022/10/12 10:35:20;;;;;;;18.45;9.05;;;;;;;15.49;57.46;102240.19;5000773;28;20042;-57
2022/10/12 10:37:54;;;;;;;16.83;8.15;;;;;;;15.61;55.88;102239.44;4991289;28;20038;-58
2022/10/12 10:40:25;;;;;;;19.20;7.85;;;;;;;16.09;55.11;102232.84;4989277;28;20041;-58
2022/10/12 10:42:54;;;;;;;17.50;8.30;;;;;;;16.45;52.04;102220.66;4989335;28;20034;-57
2022/10/12 10:45:24;;;;;;;13.07;7.55;;;;;;;16.95;51.49;102229.88;4989214;28;20028;-58
2022/10/12 10:47:49;;;;;;;;;;;;;;;17.38;54.54;102226.94;4989263;28;20034;-57
2022/10/12 10:50:33;;;;;;;17.83;8.25;;;;;;;17.23;52.55;102223.47;4988197;28;20005;-58
2022/10/12 10:53:03;;;;;;;14.95;7.38;;;;;;;17.15;50.15;102233.91;4989088;28;20030;-58
2022/10/12 10:55:54;;;;;;;13.98;7.57;;;;;;;17.52;52.56;102219.72;4971520;28;20022;-58
2022/10/12 10:58:51;;;;;;;17.85;7.78;;;;;;;18.24;49.12;102222.66;4971248;28;20037;-57
2022/10/12 11:01:25;;;;;;;17.85;8.27;;;;;;;18.00;47.83;102211.81;4987145;28;20019;-58
2022/10/12 11:04:01;;;;;;;21.20;7.90;;;;;;;18.46;48.14;102214.69;4969186;28;20050;-58
2022/10/12 11:06:40;;;;;;;15.43;7.97;;;;;;;19.10;47.19;102200.00;4983203;28;20066;-58
2022/10/12 11:09:09;;;;;;;14.82;7.30;;;;;;;19.61;44.88;102205.81;4970895;28;20030;-58
2022/10/12 11:11:36;;;;;;;14.52;7.85;;;;;;;19.84;43.47;102192.38;4988878;28;20564;-58
2022/10/12 11:14:11;;;;;;;16.08;6.88;;;;;;;20.01;43.61;102193.69;4988475;28;20109;-58
2022/10/12 11:16:42;;;;;;;14.93;7.30;;;;;;;20.00;41.95;102186.56;4988747;28;20023;-58
2022/10/12 11:19:23;;;;;;;18.20;7.50;;;;;;;20.18;44.29;102188.63;4988274;28;20022;-58
2022/10/12 11:22:02;;;;;;;14.77;7.38;;;;;;;20.25;43.21;102180.00;4987347;28;20129;-58
2022/10/12 11:24:52;;;;;;;10.52;6.40;;;;;;;20.53;43.32;102181.28;4988138;28;20030;-58
2022/10/12 11:27:29;;;;;;;14.35;5.97;;;;;;;21.04;41.67;102172.44;4971564;28;20091;-58
2022/10/12 11:30:00;;;;;;;12.23;5.53;;;;;;;21.40;39.60;102160.28;4971274;28;20034;-58
2022/10/12 11:32:33;;;;;;;17.60;6.22;;;;;;;22.01;38.36;102164.75;4989031;28;20052;-58